Time;durP1;ratioP1;P1;durP2;ratioP2;P2;SDS_P1;SDS_P2;PMS_P1;PMS_P2;Temp;Humidity;BMP_temperature;BMP_pressure;BME280_temperature;BME280_humidity;BME280_pressure;Samples;Min_cycle;Max_cycle;Signal;HPM_P1;HPM_P2
2021/12/20 00:00:15;;;;;;;1.20;0.50;;;;;;;;;;5014086;28;20533;-59
2021/12/20 00:02:42;;;;;;;1.02;0.55;;;;;;;;;;5013042;28;20083;-59
2021/12/20 00:05:08;;;;;;;0.32;0.30;;;;;;;;;;5014074;28;20108;-60
2021/12/20 00:07:34;;;;;;;1.45;0.50;;;;;;;;;;4991869;28;20121;-59
2021/12/20 00:10:00;;;;;;;1.02;0.47;;;;;;;;;;5013123;28;20053;-60
2021/12/20 00:12:26;;;;;;;0.98;0.50;;;;;;;;;;5011798;28;20096;-59
2021/12/20 00:14:52;;;;;;;0.70;0.38;;;;;;;;;;5011635;28;20041;-60
2021/12/20 00:17:17;;;;;;;1.65;0.38;;;;;;;;;;5012419;28;20061;-59
2021/12/20 00:19:43;;;;;;;2.17;0.68;;;;;;;;;;5011517;28;20390;-60
2021/12/20 00:22:09;;;;;;;1.02;0.40;;;;;;;;;;5012802;28;20052;-59
2021/12/20 00:24:35;;;;;;;0.32;0.25;;;;;;;;;;5011083;28;20097;-56
2021/12/20 00:27:04;;;;;;;0.52;0.30;;;;;;;;;;5012492;28;20290;-60
2021/12/20 00:29:30;;;;;;;1.65;0.60;;;;;;;;;;5008451;28;20049;-60
2021/12/20 00:31:56;;;;;;;0.93;0.43;;;;;;;;;;5006429;28;20036;-60
2021/12/20 00:34:22;;;;;;;0.20;0.20;;;;;;;;;;5007701;28;20072;-60
2021/12/20 00:36:56;;;;;;;0.52;0.30;;;;;;;;;;5007614;28;20033;-59
2021/12/20 00:42:06;;;;;;;3.47;0.93;;;;;;;;;;5007065;28;20191;-60
2021/12/20 00:44:32;;;;;;;0.55;0.40;;;;;;;;;;5005495;28;20073;-60
2021/12/20 00:46:58;;;;;;;7.45;0.88;;;;;;;;;;5006538;28;20579;-60
2021/12/20 00:49:24;;;;;;;1.02;0.60;;;;;;;;;;5005557;28;20096;-60
2021/12/20 00:51:49;;;;;;;1.48;0.75;;;;;;;;;;4990315;28;20048;-59
2021/12/20 00:54:15;;;;;;;2.95;1.50;;;;;;;;;;4992945;28;20044;-60
2021/12/20 00:56:41;;;;;;;2.50;0.75;;;;;;;;;;5005768;28;20038;-60
2021/12/20 00:59:07;;;;;;;1.42;0.60;;;;;;;;;;4991916;28;20585;-61
2021/12/20 01:01:33;;;;;;;1.70;0.65;;;;;;;;;;5007311;28;20389;-57
2021/12/20 01:03:59;;;;;;;0.95;0.40;;;;;;;;;;5007958;28;20581;-59
2021/12/20 01:06:25;;;;;;;1.48;0.82;;;;;;;;;;5006386;28;20048;-59
2021/12/20 01:08:52;;;;;;;2.22;0.75;;;;;;;;;;5007926;28;20367;-59
2021/12/20 01:11:22;;;;;;;0.47;0.40;;;;;;;;;;5008146;28;20042;-58
2021/12/20 01:13:49;;;;;;;4.28;0.95;;;;;;;;;;5008044;28;20050;-58
2021/12/20 01:16:15;;;;;;;0.75;0.43;;;;;;;;;;4995942;28;20053;-58
2021/12/20 01:18:41;;;;;;;1.40;0.75;;;;;;;;;;5007392;28;20129;-58
2021/12/20 01:21:08;;;;;;;1.85;0.82;;;;;;;;;;5009470;28;20883;-59
2021/12/20 01:23:36;;;;;;;0.68;0.40;;;;;;;;;;5007558;28;20053;-59
2021/12/20 01:26:02;;;;;;;1.55;0.77;;;;;;;;;;5007392;28;20499;-59
2021/12/20 01:28:28;;;;;;;1.38;0.60;;;;;;;;;;5007613;28;20054;-59
2021/12/20 01:30:54;;;;;;;1.55;0.70;;;;;;;;;;5007120;28;20057;-59
2021/12/20 01:33:20;;;;;;;0.57;0.40;;;;;;;;;;5006272;28;20041;-58
2021/12/20 01:35:46;;;;;;;1.35;0.65;;;;;;;;;;5007674;28;20183;-57
2021/12/20 01:38:11;;;;;;;1.08;0.63;;;;;;;;;;5006758;28;20505;-58
2021/12/20 01:40:38;;;;;;;1.67;1.10;;;;;;;;;;4989230;28;20081;-59
2021/12/20 01:43:04;;;;;;;1.38;0.77;;;;;;;;;;5007087;28;20076;-61
2021/12/20 01:45:31;;;;;;;1.00;0.52;;;;;;;;;;5008518;28;20070;-58
2021/12/20 01:48:12;;;;;;;1.15;0.73;;;;;;;;;;5007548;28;20052;-59
2021/12/20 01:53:06;;;;;;;1.38;0.75;;;;;;;;;;5012405;28;20038;-59
2021/12/20 01:55:32;;;;;;;2.80;0.75;;;;;;;;;;5011007;28;20044;-58
2021/12/20 01:57:57;;;;;;;0.57;0.40;;;;;;;;;;5010455;28;20056;-58
2021/12/20 02:00:25;;;;;;;0.68;0.57;;;;;;;;;;5009020;28;20584;-59
2021/12/20 02:02:57;;;;;;;13.15;1.25;;;;;;;;;;5013138;28;20121;-59
2021/12/20 02:05:34;;;;;;;3.60;1.10;;;;;;;;;;5011217;28;21109;-59
2021/12/20 02:08:13;;;;;;;0.85;0.45;;;;;;;;;;4995947;28;20045;-58
2021/12/20 02:10:39;;;;;;;6.82;1.15;;;;;;;;;;5010902;28;20517;-59
2021/12/20 02:13:05;;;;;;;0.43;0.32;;;;;;;;;;5010124;28;20040;-59
2021/12/20 02:15:31;;;;;;;1.80;0.80;;;;;;;;;;5012818;28;20045;-59
2021/12/20 02:17:56;;;;;;;2.28;1.20;;;;;;;;;;5010910;28;20056;-59
2021/12/20 02:20:24;;;;;;;3.22;1.02;;;;;;;;;;5012243;28;20469;-57
2021/12/20 02:22:49;;;;;;;22.05;1.45;;;;;;;;;;5012759;28;20133;-57
2021/12/20 02:25:15;;;;;;;1.75;1.00;;;;;;;;;;4997806;28;20060;-58
2021/12/20 02:27:44;;;;;;;5.35;1.17;;;;;;;;;;5013394;28;20099;-58
2021/12/20 02:30:25;;;;;;;1.45;0.80;;;;;;;;;;5014579;28;20077;-57
2021/12/20 02:38:22;;;;;;;1.08;0.70;;;;;;;;;;5011936;28;20053;-57
2021/12/20 02:40:59;;;;;;;2.15;1.08;;;;;;;;;;5011833;28;20417;-57
2021/12/20 02:43:27;;;;;;;0.75;0.52;;;;;;;;;;5012945;28;20090;-58
2021/12/20 02:45:57;;;;;;;1.38;0.73;;;;;;;;;;5009545;28;20157;-59
2021/12/20 02:48:23;;;;;;;2.20;1.00;;;;;;;;;;5008301;28;20108;-59
2021/12/20 02:50:48;;;;;;;1.27;0.70;;;;;;;;;;5010433;28;20049;-59
2021/12/20 02:53:14;;;;;;;2.75;0.68;;;;;;;;;;5010163;28;20042;-58
2021/12/20 02:55:40;;;;;;;2.90;1.33;;;;;;;;;;5007374;28;20465;-58
2021/12/20 02:58:08;;;;;;;1.83;0.88;;;;;;;;;;5008080;28;20034;-58
2021/12/20 03:00:34;;;;;;;7.78;0.93;;;;;;;;;;5007762;28;20557;-58
2021/12/20 03:03:00;;;;;;;1.08;0.73;;;;;;;;;;5010578;28;20140;-58
2021/12/20 03:05:25;;;;;;;2.53;1.25;;;;;;;;;;5009576;28;20050;-56
2021/12/20 03:07:52;;;;;;;1.15;0.77;;;;;;;;;;5008480;28;20124;-57
2021/12/20 03:10:19;;;;;;;1.45;0.65;;;;;;;;;;5008939;28;20041;-58
2021/12/20 03:12:48;;;;;;;2.28;0.98;;;;;;;;;;5009107;28;20053;-58
2021/12/20 03:15:19;;;;;;;1.73;1.00;;;;;;;;;;5009269;28;20118;-58
2021/12/20 03:17:45;;;;;;;1.67;0.85;;;;;;;;;;5008072;28;20096;-58
2021/12/20 03:20:14;;;;;;;2.15;1.23;;;;;;;;;;5012818;28;20141;-58
2021/12/20 03:22:43;;;;;;;2.08;1.00;;;;;;;;;;5011525;28;20100;-58
2021/12/20 03:25:09;;;;;;;1.83;0.90;;;;;;;;;;5011799;28;20037;-58
2021/12/20 03:27:34;;;;;;;2.25;1.05;;;;;;;;;;5008658;28;20044;-58
2021/12/20 03:30:01;;;;;;;0.73;0.55;;;;;;;;;;4998441;28;20073;-58
2021/12/20 03:32:27;;;;;;;8.60;2.17;;;;;;;;;;5009920;28;20046;-57
2021/12/20 03:34:52;;;;;;;1.52;0.88;;;;;;;;;;5008457;28;20030;-59
2021/12/20 03:37:18;;;;;;;0.98;0.50;;;;;;;;;;5007872;28;20041;-59
2021/12/20 03:39:44;;;;;;;2.60;1.23;;;;;;;;;;5009545;28;20041;-61
2021/12/20 03:42:10;;;;;;;2.55;1.05;;;;;;;;;;5009434;28;20073;-60
2021/12/20 03:44:43;;;;;;;2.60;1.38;;;;;;;;;;5007937;28;20041;-57
2021/12/20 03:47:09;;;;;;;3.58;1.73;;;;;;;;;;5008852;28;20064;-57
2021/12/20 03:49:35;;;;;;;2.45;1.52;;;;;;;;;;4989578;28;20586;-58
2021/12/20 03:52:01;;;;;;;3.00;1.67;;;;;;;;;;5009839;28;20856;-58
2021/12/20 03:54:27;;;;;;;3.00;1.23;;;;;;;;;;5007773;28;20037;-58
2021/12/20 03:56:52;;;;;;;2.30;1.15;;;;;;;;;;5009307;28;20092;-59
2021/12/20 03:59:18;;;;;;;1.33;0.85;;;;;;;;;;5006502;28;20033;-57
2021/12/20 04:01:44;;;;;;;3.58;1.35;;;;;;;;;;5009168;28;20050;-58
2021/12/20 04:04:10;;;;;;;3.10;1.27;;;;;;;;;;5009606;28;20037;-59
2021/12/20 04:06:36;;;;;;;1.08;0.57;;;;;;;;;;5008097;28;20103;-59
2021/12/20 04:09:02;;;;;;;4.32;0.88;;;;;;;;;;5007000;28;20405;-60
2021/12/20 04:11:28;;;;;;;1.67;1.27;;;;;;;;;;5007864;28;20038;-58
2021/12/20 04:13:56;;;;;;;1.70;0.85;;;;;;;;;;5009240;28;20526;-58
2021/12/20 04:16:22;;;;;;;4.22;0.88;;;;;;;;;;5006523;28;20033;-59
2021/12/20 04:18:48;;;;;;;2.50;1.17;;;;;;;;;;5009103;28;20060;-60
2021/12/20 04:21:14;;;;;;;0.98;0.57;;;;;;;;;;5010227;28;20041;-60
2021/12/20 04:23:40;;;;;;;0.75;0.57;;;;;;;;;;5008913;28;20042;-58
2021/12/20 04:26:06;;;;;;;1.00;0.70;;;;;;;;;;5008433;28;20117;-59
2021/12/20 04:28:32;;;;;;;10.15;1.10;;;;;;;;;;5010637;28;20054;-59
2021/12/20 04:30:58;;;;;;;4.95;2.13;;;;;;;;;;5009552;28;20045;-60
2021/12/20 04:33:23;;;;;;;10.07;2.53;;;;;;;;;;5009800;28;20589;-58
2021/12/20 04:35:50;;;;;;;1.77;1.02;;;;;;;;;;5007489;28;20133;-57
2021/12/20 04:38:16;;;;;;;0.57;0.43;;;;;;;;;;5007546;28;20042;-58
2021/12/20 04:40:42;;;;;;;1.15;0.63;;;;;;;;;;4992052;28;20041;-59
2021/12/20 04:43:08;;;;;;;1.17;0.75;;;;;;;;;;5005450;28;20041;-59
2021/12/20 04:45:34;;;;;;;0.65;0.47;;;;;;;;;;5005953;28;20120;-59
2021/12/20 04:48:01;;;;;;;1.25;0.90;;;;;;;;;;5005358;28;20057;-59
2021/12/20 04:50:28;;;;;;;1.58;0.70;;;;;;;;;;5004542;28;20034;-61
2021/12/20 04:52:55;;;;;;;8.82;1.58;;;;;;;;;;5004540;28;20045;-58
2021/12/20 04:55:21;;;;;;;1.80;0.73;;;;;;;;;;5006315;28;20049;-59
2021/12/20 04:57:50;;;;;;;0.47;0.45;;;;;;;;;;5004720;28;20612;-59
2021/12/20 05:00:21;;;;;;;1.48;0.80;;;;;;;;;;4973943;28;20995;-58
2021/12/20 05:02:47;;;;;;;1.02;0.55;;;;;;;;;;5006553;28;20049;-59
2021/12/20 05:05:13;;;;;;;0.95;0.60;;;;;;;;;;4989088;28;20045;-59
2021/12/20 05:07:39;;;;;;;1.15;0.65;;;;;;;;;;5007968;28;20045;-59
2021/12/20 05:10:09;;;;;;;5.60;1.10;;;;;;;;;;5007675;28;20093;-58
2021/12/20 05:12:35;;;;;;;0.73;0.43;;;;;;;;;;5010926;28;20402;-56
2021/12/20 05:15:00;;;;;;;0.35;0.30;;;;;;;;;;5009959;28;20042;-60
2021/12/20 05:17:26;;;;;;;0.60;0.47;;;;;;;;;;5010012;28;20443;-59
2021/12/20 05:19:55;;;;;;;0.30;0.30;;;;;;;;;;5009419;28;20048;-57
2021/12/20 05:22:20;;;;;;;1.52;0.70;;;;;;;;;;5009225;28;20084;-58
2021/12/20 05:24:46;;;;;;;0.90;0.65;;;;;;;;;;5012731;28;20197;-57
2021/12/20 05:27:12;;;;;;;1.45;0.75;;;;;;;;;;4996538;28;20141;-58
2021/12/20 05:29:38;;;;;;;1.13;0.73;;;;;;;;;;5007342;28;20085;-58
2021/12/20 05:32:06;;;;;;;2.38;0.85;;;;;;;;;;5011213;28;20057;-58
2021/12/20 05:34:32;;;;;;;1.88;1.02;;;;;;;;;;5012540;28;20401;-57
2021/12/20 05:36:58;;;;;;;7.85;1.50;;;;;;;;;;5012133;28;20557;-57
2021/12/20 05:39:24;;;;;;;1.60;0.95;;;;;;;;;;4993058;28;20144;-57
2021/12/20 05:41:50;;;;;;;2.33;0.85;;;;;;;;;;5011222;28;20062;-58
2021/12/20 05:44:15;;;;;;;1.80;0.80;;;;;;;;;;5011828;28;20124;-58
2021/12/20 05:46:41;;;;;;;1.08;0.80;;;;;;;;;;5010651;28;20116;-58
2021/12/20 05:49:07;;;;;;;0.57;0.50;;;;;;;;;;5011478;28;20461;-58
2021/12/20 05:51:33;;;;;;;2.35;0.90;;;;;;;;;;5009429;28;20038;-58
2021/12/20 05:53:59;;;;;;;0.47;0.45;;;;;;;;;;5011862;28;20069;-58
2021/12/20 05:56:25;;;;;;;0.30;0.30;;;;;;;;;;5013052;28;20045;-57
2021/12/20 05:58:51;;;;;;;1.25;0.68;;;;;;;;;;5001648;28;20042;-58
2021/12/20 06:01:17;;;;;;;0.68;0.40;;;;;;;;;;5012982;28;20038;-56
2021/12/20 06:03:42;;;;;;;4.18;0.98;;;;;;;;;;5011162;28;20142;-57
2021/12/20 06:06:08;;;;;;;1.15;0.63;;;;;;;;;;5012392;28;20045;-61
2021/12/20 06:08:34;;;;;;;0.93;0.55;;;;;;;;;;5012406;28;20057;-57
2021/12/20 06:11:00;;;;;;;0.82;0.70;;;;;;;;;;5012247;28;20442;-58
2021/12/20 06:13:26;;;;;;;0.98;0.57;;;;;;;;;;5011605;28;20137;-57
2021/12/20 06:15:52;;;;;;;2.28;0.70;;;;;;;;;;5011603;28;20494;-58
2021/12/20 06:18:18;;;;;;;1.60;0.93;;;;;;;;;;5013275;28;20124;-58
2021/12/20 06:20:44;;;;;;;2.90;1.05;;;;;;;;;;5015527;28;20057;-58
2021/12/20 06:23:11;;;;;;;0.57;0.45;;;;;;;;;;5014087;28;20034;-58
2021/12/20 06:25:37;;;;;;;0.55;0.38;;;;;;;;;;5012442;28;20568;-58
2021/12/20 06:28:02;;;;;;;0.38;0.30;;;;;;;;;;5012863;28;20159;-58
2021/12/20 06:30:28;;;;;;;0.77;0.50;;;;;;;;;;5010748;28;20860;-57
2021/12/20 06:32:54;;;;;;;0.60;0.50;;;;;;;;;;5011139;28;20103;-58
2021/12/20 06:35:20;;;;;;;1.00;0.55;;;;;;;;;;5009433;28;20042;-57
2021/12/20 06:37:57;;;;;;;0.60;0.45;;;;;;;;;;5012206;28;20091;-57
2021/12/20 06:40:23;;;;;;;0.75;0.50;;;;;;;;;;5010479;28;20053;-58
2021/12/20 06:42:48;;;;;;;0.30;0.30;;;;;;;;;;5011447;28;20448;-57
2021/12/20 06:45:14;;;;;;;0.80;0.52;;;;;;;;;;5011579;28;20044;-57
2021/12/20 06:47:40;;;;;;;0.80;0.63;;;;;;;;;;5009635;28;20509;-57
2021/12/20 06:50:06;;;;;;;1.27;0.47;;;;;;;;;;5012089;28;20129;-58
2021/12/20 06:52:32;;;;;;;0.65;0.65;;;;;;;;;;5013265;28;20128;-57
2021/12/20 06:54:58;;;;;;;2.30;0.43;;;;;;;;;;4999633;28;20140;-56
2021/12/20 06:57:24;;;;;;;0.75;0.57;;;;;;;;;;5012632;28;20045;-55
2021/12/20 06:59:50;;;;;;;0.75;0.60;;;;;;;;;;5013158;28;20132;-57
2021/12/20 07:02:16;;;;;;;0.45;0.45;;;;;;;;;;5013396;28;20056;-57
2021/12/20 07:04:42;;;;;;;3.92;0.68;;;;;;;;;;5013435;28;20053;-57
2021/12/20 07:07:08;;;;;;;0.65;0.55;;;;;;;;;;5012643;28;20164;-56
2021/12/20 07:09:33;;;;;;;0.52;0.40;;;;;;;;;;5013921;28;20049;-58
2021/12/20 07:12:00;;;;;;;0.90;0.85;;;;;;;;;;5015086;28;20046;-56
2021/12/20 07:14:27;;;;;;;3.45;0.77;;;;;;;;;;5013623;28;20049;-58
2021/12/20 07:16:54;;;;;;;0.57;0.50;;;;;;;;;;5016554;28;20039;-58
2021/12/20 07:19:19;;;;;;;0.55;0.50;;;;;;;;;;5013271;28;20095;-58
2021/12/20 07:21:45;;;;;;;2.40;0.93;;;;;;;;;;5013383;28;20037;-57
2021/12/20 07:24:11;;;;;;;0.28;0.28;;;;;;;;;;5012794;28;20038;-57
2021/12/20 07:26:37;;;;;;;0.63;0.63;;;;;;;;;;5012205;28;20037;-57
2021/12/20 07:29:05;;;;;;;0.43;0.40;;;;;;;;;;5013704;28;20058;-57
2021/12/20 07:31:30;;;;;;;1.45;0.77;;;;;;;;;;5011979;28;20168;-58
2021/12/20 07:33:56;;;;;;;1.27;0.63;;;;;;;;;;5011179;28;20041;-57
2021/12/20 07:36:22;;;;;;;0.38;0.35;;;;;;;;;;5008153;28;20250;-57
2021/12/20 07:38:49;;;;;;;0.32;0.30;;;;;;;;;;5010321;28;20045;-57
2021/12/20 07:41:18;;;;;;;0.55;0.50;;;;;;;;;;5010361;28;20394;-58
2021/12/20 07:43:44;;;;;;;1.35;0.93;;;;;;;;;;5009415;28;20034;-58
2021/12/20 07:46:10;;;;;;;1.02;0.63;;;;;;;;;;5007296;28;20503;-56
2021/12/20 07:48:36;;;;;;;0.95;0.57;;;;;;;;;;5007165;28;20069;-58
2021/12/20 07:51:02;;;;;;;0.20;0.20;;;;;;;;;;5013451;28;20541;-58
2021/12/20 07:53:28;;;;;;;0.35;0.30;;;;;;;;;;5012261;28;20052;-58
2021/12/20 07:55:53;;;;;;;1.55;0.75;;;;;;;;;;5012622;28;20045;-58
2021/12/20 07:58:20;;;;;;;0.30;0.30;;;;;;;;;;5010584;28;20466;-58
2021/12/20 08:00:47;;;;;;;8.20;1.30;;;;;;;;;;5014067;28;20052;-58
2021/12/20 08:03:12;;;;;;;0.73;0.57;;;;;;;;;;5013007;28;20045;-58
2021/12/20 08:05:38;;;;;;;1.17;0.68;;;;;;;;;;5008560;28;20056;-58
2021/12/20 08:08:04;;;;;;;0.57;0.50;;;;;;;;;;5009249;28;20050;-58
2021/12/20 08:10:30;;;;;;;0.20;0.20;;;;;;;;;;5008150;28;20044;-58
2021/12/20 08:12:56;;;;;;;0.75;0.68;;;;;;;;;;5008483;28;20997;-58
2021/12/20 08:15:22;;;;;;;0.47;0.47;;;;;;;;;;5008703;28;20042;-58
2021/12/20 08:17:49;;;;;;;1.23;0.98;;;;;;;;;;5008341;28;20049;-59
2021/12/20 08:20:15;;;;;;;0.77;0.63;;;;;;;;;;5008005;28;20131;-58
2021/12/20 08:22:40;;;;;;;1.70;0.90;;;;;;;;;;5007039;28;20045;-58
2021/12/20 08:25:07;;;;;;;0.52;0.47;;;;;;;;;;5009964;28;20042;-58
2021/12/20 08:27:33;;;;;;;1.20;0.60;;;;;;;;;;5007930;28;20077;-58
2021/12/20 08:29:58;;;;;;;0.38;0.30;;;;;;;;;;5008759;28;20589;-58
2021/12/20 08:32:25;;;;;;;0.38;0.30;;;;;;;;;;5008753;28;20124;-57
2021/12/20 08:34:50;;;;;;;2.72;1.00;;;;;;;;;;5010952;28;20034;-58
2021/12/20 08:37:16;;;;;;;1.23;0.82;;;;;;;;;;5010210;28;20046;-58
2021/12/20 08:39:42;;;;;;;1.13;0.85;;;;;;;;;;5007948;28;20159;-59
2021/12/20 08:42:08;;;;;;;1.02;0.57;;;;;;;;;;5010787;28;20046;-56
2021/12/20 08:44:34;;;;;;;0.22;0.22;;;;;;;;;;5010195;28;20034;-57
2021/12/20 08:47:00;;;;;;;1.13;0.52;;;;;;;;;;5009443;28;20045;-57
2021/12/20 08:49:26;;;;;;;1.00;0.75;;;;;;;;;;5008795;28;20042;-57
2021/12/20 08:51:54;;;;;;;1.60;0.90;;;;;;;;;;4990928;28;20045;-58
2021/12/20 08:54:20;;;;;;;0.30;0.30;;;;;;;;;;5008830;28;20056;-57
2021/12/20 08:56:46;;;;;;;0.38;0.38;;;;;;;;;;5008317;28;20037;-57
2021/12/20 08:59:12;;;;;;;0.52;0.38;;;;;;;;;;5009660;28;20100;-57
2021/12/20 09:01:38;;;;;;;0.57;0.45;;;;;;;;;;5009694;28;20045;-58
2021/12/20 09:04:05;;;;;;;0.43;0.40;;;;;;;;;;5009252;28;20069;-57
2021/12/20 09:06:32;;;;;;;0.20;0.20;;;;;;;;;;4992139;28;20122;-58
2021/12/20 09:08:58;;;;;;;0.40;0.40;;;;;;;;;;5009872;28;20060;-57
2021/12/20 09:11:27;;;;;;;0.20;0.20;;;;;;;;;;4988270;28;20030;-57
2021/12/20 09:13:53;;;;;;;2.70;0.68;;;;;;;;;;5008564;28;20461;-57
2021/12/20 09:16:19;;;;;;;0.82;0.52;;;;;;;;;;5008211;28;20048;-56
2021/12/20 09:18:45;;;;;;;1.48;0.85;;;;;;;;;;5007506;28;20924;-59
2021/12/20 09:21:11;;;;;;;0.30;0.30;;;;;;;;;;5008527;28;20040;-58
2021/12/20 09:23:38;;;;;;;0.40;0.40;;;;;;;;;;5006874;28;20033;-55
2021/12/20 09:26:04;;;;;;;0.38;0.30;;;;;;;;;;5007175;28;20081;-56
2021/12/20 09:28:30;;;;;;;1.42;0.82;;;;;;;;;;4991372;28;20150;-58
2021/12/20 09:30:56;;;;;;;0.25;0.20;;;;;;;;;;4989584;28;20045;-56
2021/12/20 09:33:21;;;;;;;0.88;0.75;;;;;;;;;;5007235;28;20116;-58
2021/12/20 09:35:50;;;;;;;0.70;0.50;;;;;;;;;;5009199;28;20037;-57
2021/12/20 09:38:17;;;;;;;0.50;0.50;;;;;;;;;;5007353;28;20042;-57
2021/12/20 09:41:02;;;;;;;1.55;0.90;;;;;;;;;;5006508;28;20690;-58
2021/12/20 09:43:28;;;;;;;0.20;0.20;;;;;;;;;;5006686;28;20042;-58
2021/12/20 09:45:55;;;;;;;0.30;0.30;;;;;;;;;;5007547;28;20034;-57
2021/12/20 09:48:21;;;;;;;0.98;0.80;;;;;;;;;;4965376;28;20054;-57
2021/12/20 09:50:47;;;;;;;0.68;0.60;;;;;;;;;;4968879;28;20038;-56
2021/12/20 09:53:14;;;;;;;0.25;0.25;;;;;;;;;;4968180;28;20385;-58
2021/12/20 09:55:43;;;;;;;1.27;0.90;;;;;;;;;;4964767;28;20043;-57
2021/12/20 09:58:09;;;;;;;0.63;0.50;;;;;;;;;;4968333;28;20053;-56
2021/12/20 10:00:35;;;;;;;0.80;0.52;;;;;;;;;;4967679;28;20839;-57
2021/12/20 10:03:01;;;;;;;1.77;0.80;;;;;;;;;;4969824;28;20053;-57
2021/12/20 10:05:27;;;;;;;0.20;0.20;;;;;;;;;;4966403;28;20043;-57
2021/12/20 10:07:56;;;;;;;0.20;0.20;;;;;;;;;;4969735;28;20050;-57
2021/12/20 10:10:39;;;;;;;1.08;0.68;;;;;;;;;;4971437;28;20580;-58
2021/12/20 10:13:05;;;;;;;0.30;0.30;;;;;;;;;;4972172;28;20042;-57
2021/12/20 10:15:38;;;;;;;0.38;0.38;;;;;;;;;;4971939;28;20085;-57
2021/12/20 10:18:05;;;;;;;0.30;0.30;;;;;;;;;;4974759;28;20617;-62
2021/12/20 10:20:35;;;;;;;1.00;0.90;;;;;;;;;;4973953;28;20180;-56
2021/12/20 10:23:17;;;;;;;0.43;0.43;;;;;;;;;;4974754;28;20038;-56
2021/12/20 10:25:44;;;;;;;0.20;0.20;;;;;;;;;;4973840;28;20042;-58
2021/12/20 10:28:11;;;;;;;0.20;0.20;;;;;;;;;;4972532;28;20133;-58
2021/12/20 10:30:41;;;;;;;0.98;0.55;;;;;;;;;;4975483;28;20117;-58
2021/12/20 10:33:13;;;;;;;1.73;0.68;;;;;;;;;;4972513;28;20061;-57
2021/12/20 10:35:41;;;;;;;0.50;0.45;;;;;;;;;;4970981;28;20145;-57
2021/12/20 10:38:22;;;;;;;0.47;0.43;;;;;;;;;;4974307;28;20468;-57
2021/12/20 10:41:05;;;;;;;0.28;0.28;;;;;;;;;;4973656;28;20034;-57
2021/12/20 10:43:40;;;;;;;0.30;0.30;;;;;;;;;;4972864;28;20172;-58
2021/12/20 10:46:11;;;;;;;0.43;0.43;;;;;;;;;;4978529;28;20038;-57
2021/12/20 10:48:37;;;;;;;0.28;0.28;;;;;;;;;;5013373;28;20057;-57
2021/12/20 10:51:02;;;;;;;0.50;0.38;;;;;;;;;;4994794;28;20034;-57
2021/12/20 10:53:29;;;;;;;0.30;0.30;;;;;;;;;;4992466;28;20063;-58
2021/12/20 10:55:59;;;;;;;0.63;0.63;;;;;;;;;;5011381;28;20042;-58
2021/12/20 10:58:31;;;;;;;1.40;0.68;;;;;;;;;;5002284;28;20064;-58
2021/12/20 11:01:03;;;;;;;0.55;0.47;;;;;;;;;;5012442;28;20045;-57
2021/12/20 11:03:34;;;;;;;0.38;0.32;;;;;;;;;;5011693;28;20091;-58
2021/12/20 11:11:26;;;;;;;0.43;0.40;;;;;;;;;;5012748;28;20051;-58
2021/12/20 11:13:52;;;;;;;0.30;0.30;;;;;;;;;;5014688;28;20037;-57
2021/12/20 11:16:33;;;;;;;0.52;0.43;;;;;;;;;;5012838;28;21040;-55
2021/12/20 11:19:09;;;;;;;0.30;0.30;;;;;;;;;;5012861;28;20510;-58
2021/12/20 11:21:36;;;;;;;3.47;0.65;;;;;;;;;;5011122;28;20037;-55
2021/12/20 11:24:02;;;;;;;1.00;0.65;;;;;;;;;;4993206;28;20390;-58
2021/12/20 11:26:28;;;;;;;1.40;1.30;;;;;;;;;;5011718;28;20037;-58
2021/12/20 11:28:57;;;;;;;0.20;0.20;;;;;;;;;;4992626;28;20892;-58
2021/12/20 11:31:23;;;;;;;1.33;0.98;;;;;;;;;;5012773;28;20132;-53
2021/12/20 11:33:49;;;;;;;0.30;0.30;;;;;;;;;;5010919;28;20046;-56
2021/12/20 11:36:15;;;;;;;0.20;0.20;;;;;;;;;;5013176;28;20045;-56
2021/12/20 11:38:41;;;;;;;0.32;0.32;;;;;;;;;;5009609;28;20121;-56
2021/12/20 11:41:07;;;;;;;0.75;0.50;;;;;;;;;;5010691;28;20076;-57
2021/12/20 11:43:33;;;;;;;0.50;0.50;;;;;;;;;;5010090;28;20546;-57
2021/12/20 11:45:59;;;;;;;0.30;0.30;;;;;;;;;;4998505;28;20037;-57
2021/12/20 11:48:27;;;;;;;5.75;1.17;;;;;;;;;;5009168;28;20092;-56
2021/12/20 11:50:57;;;;;;;0.70;0.70;;;;;;;;;;5010914;28;20088;-56
2021/12/20 11:53:23;;;;;;;0.30;0.30;;;;;;;;;;5009380;28;20057;-57
2021/12/20 11:55:50;;;;;;;2.72;0.60;;;;;;;;;;5009834;28;20046;-57
2021/12/20 11:58:21;;;;;;;0.20;0.20;;;;;;;;;;5007829;28;20706;-58
2021/12/20 12:00:50;;;;;;;0.40;0.40;;;;;;;;;;5008106;28;20034;-55
2021/12/20 12:03:16;;;;;;;1.10;1.00;;;;;;;;;;5011709;28;20191;-57
2021/12/20 12:05:54;;;;;;;26.88;0.90;;;;;;;;;;5009365;28;20375;-58
2021/12/20 12:08:22;;;;;;;0.47;0.47;;;;;;;;;;5008193;28;20072;-57
2021/12/20 12:10:47;;;;;;;0.55;0.40;;;;;;;;;;5010451;28;20359;-57
2021/12/20 12:13:18;;;;;;;2.03;1.15;;;;;;;;;;5009672;28;20041;-57
2021/12/20 12:15:52;;;;;;;0.45;0.45;;;;;;;;;;5008559;28;20117;-57
2021/12/20 12:18:18;;;;;;;1.05;0.77;;;;;;;;;;5007143;28;20045;-57
2021/12/20 12:20:49;;;;;;;0.82;0.55;;;;;;;;;;5009282;28;20026;-58
2021/12/20 12:23:15;;;;;;;1.48;0.90;;;;;;;;;;5008831;28;20128;-56
2021/12/20 12:25:49;;;;;;;1.65;1.10;;;;;;;;;;5008779;28;20041;-56
2021/12/20 12:28:17;;;;;;;0.63;0.55;;;;;;;;;;5006624;28;20057;-56
2021/12/20 12:30:44;;;;;;;0.70;0.60;;;;;;;;;;5008623;28;20053;-56
2021/12/20 12:33:12;;;;;;;0.35;0.30;;;;;;;;;;5009437;28;20395;-58
2021/12/20 12:35:49;;;;;;;0.57;0.50;;;;;;;;;;5008653;28;20045;-56
2021/12/20 12:38:21;;;;;;;0.77;0.60;;;;;;;;;;5008547;28;20141;-56
2021/12/20 12:40:50;;;;;;;1.15;0.57;;;;;;;;;;5008429;28;20041;-57
2021/12/20 12:43:18;;;;;;;2.03;1.60;;;;;;;;;;5008104;28;20160;-57
2021/12/20 12:45:50;;;;;;;0.50;0.50;;;;;;;;;;5010004;28;20042;-57
2021/12/20 12:48:33;;;;;;;0.82;0.77;;;;;;;;;;5008959;28;20057;-57
2021/12/20 12:51:06;;;;;;;0.70;0.60;;;;;;;;;;4990606;28;20938;-56
2021/12/20 12:53:44;;;;;;;1.73;1.52;;;;;;;;;;5011056;28;20149;-55
2021/12/20 12:56:28;;;;;;;1.20;0.93;;;;;;;;;;5010889;28;20419;-57
2021/12/20 12:59:14;;;;;;;0.80;0.80;;;;;;;;;;5009541;28;20125;-57
2021/12/20 13:01:41;;;;;;;1.08;0.73;;;;;;;;;;5008865;28;20493;-58
2021/12/20 13:04:07;;;;;;;1.00;0.90;;;;;;;;;;5009393;28;20042;-57
2021/12/20 13:06:33;;;;;;;0.57;0.50;;;;;;;;;;5007548;28;20564;-57
2021/12/20 13:08:59;;;;;;;0.80;0.65;;;;;;;;;;5005759;28;20096;-57
2021/12/20 13:11:26;;;;;;;0.43;0.30;;;;;;;;;;4989187;28;20398;-57
2021/12/20 13:14:14;;;;;;;0.57;0.50;;;;;;;;;;5007635;28;20624;-57
2021/12/20 13:16:57;;;;;;;1.73;1.15;;;;;;;;;;5007497;28;20038;-57
2021/12/20 13:19:34;;;;;;;1.30;0.82;;;;;;;;;;5006818;28;20566;-57
2021/12/20 13:22:01;;;;;;;0.55;0.55;;;;;;;;;;5010477;28;20046;-54
2021/12/20 13:24:27;;;;;;;0.52;0.52;;;;;;;;;;5010469;28;20050;-56
2021/12/20 13:27:06;;;;;;;0.43;0.30;;;;;;;;;;5009338;28;20490;-56
2021/12/20 13:29:32;;;;;;;5.03;1.10;;;;;;;;;;5009078;28;20081;-56
2021/12/20 13:32:08;;;;;;;0.68;0.68;;;;;;;;;;4998243;28;20053;-57
2021/12/20 13:34:35;;;;;;;0.68;0.50;;;;;;;;;;5009804;28;20117;-55
2021/12/20 13:37:08;;;;;;;0.80;0.73;;;;;;;;;;5008764;28;20029;-56
2021/12/20 13:39:34;;;;;;;0.82;0.50;;;;;;;;;;5009694;28;20782;-56
2021/12/20 13:42:09;;;;;;;0.30;0.30;;;;;;;;;;5009454;28;20044;-56
2021/12/20 13:44:36;;;;;;;0.30;0.30;;;;;;;;;;5007267;28;20071;-58
2021/12/20 13:47:05;;;;;;;0.30;0.30;;;;;;;;;;5012639;28;20049;-58
2021/12/20 13:49:31;;;;;;;0.45;0.38;;;;;;;;;;5012117;28;20053;-57
2021/12/20 13:52:09;;;;;;;1.50;0.82;;;;;;;;;;5015179;28;20556;-56
2021/12/20 13:54:37;;;;;;;0.20;0.20;;;;;;;;;;5012295;28;20141;-58
2021/12/20 13:57:19;;;;;;;0.20;0.20;;;;;;;;;;5011369;28;20029;-57
2021/12/20 13:59:47;;;;;;;0.20;0.20;;;;;;;;;;4996425;28;20041;-57
2021/12/20 14:02:14;;;;;;;0.20;0.20;;;;;;;;;;5014054;28;20390;-57
2021/12/20 14:04:44;;;;;;;0.20;0.20;;;;;;;;;;5012761;28;20286;-57
2021/12/20 14:07:24;;;;;;;1.20;0.93;;;;;;;;;;4992509;28;20041;-58
2021/12/20 14:10:07;;;;;;;2.35;0.50;;;;;;;;;;5011897;28;20060;-56
2021/12/20 14:12:35;;;;;;;1.33;1.13;;;;;;;;;;5013841;28;20088;-57
2021/12/20 14:15:09;;;;;;;0.25;0.25;;;;;;;;;;5011868;28;20034;-58
2021/12/20 14:17:55;;;;;;;3.90;0.80;;;;;;;;;;5009985;28;20632;-55
2021/12/20 14:20:22;;;;;;;0.20;0.20;;;;;;;;;;5009259;28;20048;-56
2021/12/20 14:22:58;;;;;;;0.50;0.50;;;;;;;;;;4990007;28;20049;-57
2021/12/20 14:25:31;;;;;;;0.73;0.50;;;;;;;;;;5006769;28;21239;-57
2021/12/20 14:27:56;;;;;;;;;;;;;;;;;;5007703;28;21865;-57
2021/12/20 14:30:22;;;;;;;0.50;0.50;;;;;;;;;;5008455;28;19932;-58
2021/12/20 14:32:48;;;;;;;0.70;0.60;;;;;;;;;;5008848;28;20041;-57
2021/12/20 14:35:35;;;;;;;0.75;0.68;;;;;;;;;;4990390;28;20437;-57
2021/12/20 14:38:03;;;;;;;0.20;0.20;;;;;;;;;;5008784;28;20107;-57
2021/12/20 14:40:38;;;;;;;0.52;0.52;;;;;;;;;;5008262;28;20042;-57
2021/12/20 14:43:06;;;;;;;0.20;0.20;;;;;;;;;;5009761;28;20061;-58
2021/12/20 14:45:32;;;;;;;0.60;0.60;;;;;;;;;;4991482;28;20034;-56
2021/12/20 14:48:14;;;;;;;1.05;0.88;;;;;;;;;;5008862;28;20510;-58
2021/12/20 14:50:45;;;;;;;0.30;0.30;;;;;;;;;;5008817;28;20065;-57
2021/12/20 14:53:21;;;;;;;0.22;0.22;;;;;;;;;;5008414;28;20348;-57
2021/12/20 14:55:47;;;;;;;0.20;0.20;;;;;;;;;;4998551;28;20049;-56
2021/12/20 14:58:13;;;;;;;3.38;1.02;;;;;;;;;;5005242;28;20045;-57
2021/12/20 15:00:41;;;;;;;22.40;1.23;;;;;;;;;;5008815;28;20041;-57
2021/12/20 15:03:07;;;;;;;1.80;1.40;;;;;;;;;;5008686;28;20041;-57